sensor_id;sensor_type;location;lat;lon;timestamp;temperature;humidity
12771;DHT22;6449;47.666;9.160;2023-06-22T00:03:09;21.00;99.90
12771;DHT22;6449;47.666;9.160;2023-06-22T00:08:04;20.90;99.90
12771;DHT22;6449;47.666;9.160;2023-06-22T00:12:57;21.00;99.90
12771;DHT22;6449;47.666;9.160;2023-06-22T00:17:52;20.80;99.90
12771;DHT22;6449;47.666;9.160;2023-06-22T00:22:46;20.90;99.90
12771;DHT22;6449;47.666;9.160;2023-06-22T00:27:40;21.00;99.90
12771;DHT22;6449;47.666;9.160;2023-06-22T00:32:33;20.90;99.90
12771;DHT22;6449;47.666;9.160;2023-06-22T00:37:28;20.90;99.90
12771;DHT22;6449;47.666;9.160;2023-06-22T00:42:21;21.00;99.90
12771;DHT22;6449;47.666;9.160;2023-06-22T00:47:16;21.10;99.90
12771;DHT22;6449;47.666;9.160;2023-06-22T00:52:11;20.90;99.90
12771;DHT22;6449;47.666;9.160;2023-06-22T00:57:07;20.90;99.90
12771;DHT22;6449;47.666;9.160;2023-06-22T01:02:03;20.80;99.90
12771;DHT22;6449;47.666;9.160;2023-06-22T01:07:03;20.80;99.90
12771;DHT22;6449;47.666;9.160;2023-06-22T01:12:07;20.80;99.90
12771;DHT22;6449;47.666;9.160;2023-06-22T01:17:05;20.80;99.90
12771;DHT22;6449;47.666;9.160;2023-06-22T01:22:02;20.70;99.90
12771;DHT22;6449;47.666;9.160;2023-06-22T01:27:09;20.60;99.90
12771;DHT22;6449;47.666;9.160;2023-06-22T01:32:15;20.50;99.90
12771;DHT22;6449;47.666;9.160;2023-06-22T01:37:09;20.50;99.90
12771;DHT22;6449;47.666;9.160;2023-06-22T01:42:03;20.50;99.90
12771;DHT22;6449;47.666;9.160;2023-06-22T01:46:58;20.50;99.90
12771;DHT22;6449;47.666;9.160;2023-06-22T01:51:53;20.40;99.90
12771;DHT22;6449;47.666;9.160;2023-06-22T01:56:47;20.40;99.90
12771;DHT22;6449;47.666;9.160;2023-06-22T02:01:43;20.30;99.90
12771;DHT22;6449;47.666;9.160;2023-06-22T02:06:45;20.20;99.90
12771;DHT22;6449;47.666;9.160;2023-06-22T02:11:46;20.10;99.90
12771;DHT22;6449;47.666;9.160;2023-06-22T02:16:43;20.00;99.90
12771;DHT22;6449;47.666;9.160;2023-06-22T02:21:37;20.00;99.90
12771;DHT22;6449;47.666;9.160;2023-06-22T02:26:32;20.10;99.90
12771;DHT22;6449;47.666;9.160;2023-06-22T02:31:27;20.10;99.90
12771;DHT22;6449;47.666;9.160;2023-06-22T02:36:22;20.00;99.90
12771;DHT22;6449;47.666;9.160;2023-06-22T02:41:18;19.90;99.90
12771;DHT22;6449;47.666;9.160;2023-06-22T02:46:12;19.70;99.90
12771;DHT22;6449;47.666;9.160;2023-06-22T02:51:07;19.70;99.90
12771;DHT22;6449;47.666;9.160;2023-06-22T02:56:01;19.60;99.90
12771;DHT22;6449;47.666;9.160;2023-06-22T03:00:57;19.60;99.90
12771;DHT22;6449;47.666;9.160;2023-06-22T03:05:56;19.50;99.90
12771;DHT22;6449;47.666;9.160;2023-06-22T03:10:51;19.40;99.90
12771;DHT22;6449;47.666;9.160;2023-06-22T03:15:44;19.50;99.90
12771;DHT22;6449;47.666;9.160;2023-06-22T03:20:38;19.40;99.90
12771;DHT22;6449;47.666;9.160;2023-06-22T03:25:31;19.40;99.90
12771;DHT22;6449;47.666;9.160;2023-06-22T03:30:26;19.20;99.90
12771;DHT22;6449;47.666;9.160;2023-06-22T03:35:20;19.10;99.90
12771;DHT22;6449;47.666;9.160;2023-06-22T03:40:14;19.10;99.90
12771;DHT22;6449;47.666;9.160;2023-06-22T03:45:09;19.20;99.90
12771;DHT22;6449;47.666;9.160;2023-06-22T03:50:05;19.20;99.90
12771;DHT22;6449;47.666;9.160;2023-06-22T03:54:59;19.10;99.90
12771;DHT22;6449;47.666;9.160;2023-06-22T03:59:56;19.00;99.90
12771;DHT22;6449;47.666;9.160;2023-06-22T04:04:49;19.10;99.90
12771;DHT22;6449;47.666;9.160;2023-06-22T04:09:44;19.20;99.90
12771;DHT22;6449;47.666;9.160;2023-06-22T04:14:38;19.10;99.90
12771;DHT22;6449;47.666;9.160;2023-06-22T04:19:31;19.10;99.90
12771;DHT22;6449;47.666;9.160;2023-06-22T04:24:25;19.00;99.90
12771;DHT22;6449;47.666;9.160;2023-06-22T04:29:19;19.20;99.90
12771;DHT22;6449;47.666;9.160;2023-06-22T04:34:20;19.10;99.90
12771;DHT22;6449;47.666;9.160;2023-06-22T04:39:15;19.10;99.90
12771;DHT22;6449;47.666;9.160;2023-06-22T04:44:11;19.10;99.90
12771;DHT22;6449;47.666;9.160;2023-06-22T04:49:08;19.40;99.90
12771;DHT22;6449;47.666;9.160;2023-06-22T04:54:02;19.40;99.90
12771;DHT22;6449;47.666;9.160;2023-06-22T04:58:57;19.50;99.90
12771;DHT22;6449;47.666;9.160;2023-06-22T05:03:51;19.20;99.90
12771;DHT22;6449;47.666;9.160;2023-06-22T05:08:49;19.60;99.90
12771;DHT22;6449;47.666;9.160;2023-06-22T05:13:42;19.80;99.90
12771;DHT22;6449;47.666;9.160;2023-06-22T05:18:35;20.10;99.90
12771;DHT22;6449;47.666;9.160;2023-06-22T05:23:29;20.20;99.90
12771;DHT22;6449;47.666;9.160;2023-06-22T05:28:24;20.40;99.90
12771;DHT22;6449;47.666;9.160;2023-06-22T05:33:17;20.70;99.90
12771;DHT22;6449;47.666;9.160;2023-06-22T05:38:11;20.70;99.90
12771;DHT22;6449;47.666;9.160;2023-06-22T05:43:04;20.90;99.90
12771;DHT22;6449;47.666;9.160;2023-06-22T05:47:59;20.90;99.90
12771;DHT22;6449;47.666;9.160;2023-06-22T05:52:53;21.00;99.90
12771;DHT22;6449;47.666;9.160;2023-06-22T05:57:46;21.00;99.90
12771;DHT22;6449;47.666;9.160;2023-06-22T06:02:40;21.10;99.90
12771;DHT22;6449;47.666;9.160;2023-06-22T06:07:37;21.30;99.90
12771;DHT22;6449;47.666;9.160;2023-06-22T06:12:30;21.50;99.90
12771;DHT22;6449;47.666;9.160;2023-06-22T06:17:24;21.40;99.90
12771;DHT22;6449;47.666;9.160;2023-06-22T06:22:17;21.20;99.90
12771;DHT22;6449;47.666;9.160;2023-06-22T06:27:14;21.30;99.90
12771;DHT22;6449;47.666;9.160;2023-06-22T06:32:08;21.30;99.90
12771;DHT22;6449;47.666;9.160;2023-06-22T06:37:02;21.40;99.90
12771;DHT22;6449;47.666;9.160;2023-06-22T06:41:55;21.30;99.90
12771;DHT22;6449;47.666;9.160;2023-06-22T06:46:50;21.30;99.90
12771;DHT22;6449;47.666;9.160;2023-06-22T06:51:46;21.50;99.90
12771;DHT22;6449;47.666;9.160;2023-06-22T06:56:39;21.60;99.90
12771;DHT22;6449;47.666;9.160;2023-06-22T07:01:40;21.70;99.90
12771;DHT22;6449;47.666;9.160;2023-06-22T07:06:34;22.00;99.90
12771;DHT22;6449;47.666;9.160;2023-06-22T07:11:28;22.10;99.90
12771;DHT22;6449;47.666;9.160;2023-06-22T07:16:21;22.40;99.90
12771;DHT22;6449;47.666;9.160;2023-06-22T07:21:15;22.60;99.90
12771;DHT22;6449;47.666;9.160;2023-06-22T07:26:25;22.70;99.90
12771;DHT22;6449;47.666;9.160;2023-06-22T07:31:18;23.00;99.90
12771;DHT22;6449;47.666;9.160;2023-06-22T07:36:13;23.10;99.90
12771;DHT22;6449;47.666;9.160;2023-06-22T07:41:06;23.30;99.90
12771;DHT22;6449;47.666;9.160;2023-06-22T07:46:01;23.50;99.90
12771;DHT22;6449;47.666;9.160;2023-06-22T07:50:55;23.70;99.90
12771;DHT22;6449;47.666;9.160;2023-06-22T07:55:49;23.90;99.90
12771;DHT22;6449;47.666;9.160;2023-06-22T08:00:42;24.00;99.90
12771;DHT22;6449;47.666;9.160;2023-06-22T08:05:37;24.00;99.90
12771;DHT22;6449;47.666;9.160;2023-06-22T08:10:31;24.00;99.90
12771;DHT22;6449;47.666;9.160;2023-06-22T08:15:27;24.00;99.90
12771;DHT22;6449;47.666;9.160;2023-06-22T08:20:22;23.70;99.90
12771;DHT22;6449;47.666;9.160;2023-06-22T08:25:17;23.40;99.90
12771;DHT22;6449;47.666;9.160;2023-06-22T08:30:11;23.30;99.90
12771;DHT22;6449;47.666;9.160;2023-06-22T08:35:05;23.10;99.90
12771;DHT22;6449;47.666;9.160;2023-06-22T08:40:01;23.10;99.90
12771;DHT22;6449;47.666;9.160;2023-06-22T08:44:58;23.20;99.90
12771;DHT22;6449;47.666;9.160;2023-06-22T08:49:52;23.40;99.90
12771;DHT22;6449;47.666;9.160;2023-06-22T09:00:38;24.40;99.90
12771;DHT22;6449;47.666;9.160;2023-06-22T09:05:31;24.90;99.90
12771;DHT22;6449;47.666;9.160;2023-06-22T09:10:25;25.10;99.90
12771;DHT22;6449;47.666;9.160;2023-06-22T09:15:21;25.50;99.90
12771;DHT22;6449;47.666;9.160;2023-06-22T09:20:16;25.60;99.90
12771;DHT22;6449;47.666;9.160;2023-06-22T09:25:10;25.70;99.90
12771;DHT22;6449;47.666;9.160;2023-06-22T09:30:04;25.70;99.90
12771;DHT22;6449;47.666;9.160;2023-06-22T09:35:01;25.80;99.90
12771;DHT22;6449;47.666;9.160;2023-06-22T09:40:00;26.10;99.90
12771;DHT22;6449;47.666;9.160;2023-06-22T09:44:53;26.00;99.90
12771;DHT22;6449;47.666;9.160;2023-06-22T09:49:46;26.00;99.90
12771;DHT22;6449;47.666;9.160;2023-06-22T09:54:40;26.00;99.90
12771;DHT22;6449;47.666;9.160;2023-06-22T09:59:34;25.90;99.90
12771;DHT22;6449;47.666;9.160;2023-06-22T10:04:28;26.00;99.90
12771;DHT22;6449;47.666;9.160;2023-06-22T10:09:22;26.10;99.90
12771;DHT22;6449;47.666;9.160;2023-06-22T10:14:15;26.40;99.90
12771;DHT22;6449;47.666;9.160;2023-06-22T10:19:10;26.70;99.90
12771;DHT22;6449;47.666;9.160;2023-06-22T10:24:04;26.90;99.90
12771;DHT22;6449;47.666;9.160;2023-06-22T10:28:58;27.10;99.90
12771;DHT22;6449;47.666;9.160;2023-06-22T10:33:57;27.30;99.90
12771;DHT22;6449;47.666;9.160;2023-06-22T10:38:52;27.50;99.90
12771;DHT22;6449;47.666;9.160;2023-06-22T10:43:47;27.50;99.90
12771;DHT22;6449;47.666;9.160;2023-06-22T10:48:43;27.60;99.90
12771;DHT22;6449;47.666;9.160;2023-06-22T11:05:25;27.60;99.90
12771;DHT22;6449;47.666;9.160;2023-06-22T11:10:48;27.30;99.90
12771;DHT22;6449;47.666;9.160;2023-06-22T11:15:57;27.10;99.90
12771;DHT22;6449;47.666;9.160;2023-06-22T11:21:03;26.80;99.90
12771;DHT22;6449;47.666;9.160;2023-06-22T11:26:18;26.50;99.90
12771;DHT22;6449;47.666;9.160;2023-06-22T11:37:47;26.70;99.90
12771;DHT22;6449;47.666;9.160;2023-06-22T11:43:37;26.60;99.90
12771;DHT22;6449;47.666;9.160;2023-06-22T11:48:32;26.30;99.90
12771;DHT22;6449;47.666;9.160;2023-06-22T11:53:34;26.10;99.90
12771;DHT22;6449;47.666;9.160;2023-06-22T11:58:28;26.00;99.90
12771;DHT22;6449;47.666;9.160;2023-06-22T12:03:22;26.00;99.90
12771;DHT22;6449;47.666;9.160;2023-06-22T12:08:16;26.40;99.90
12771;DHT22;6449;47.666;9.160;2023-06-22T12:13:10;26.60;99.90
12771;DHT22;6449;47.666;9.160;2023-06-22T12:18:12;26.30;99.90
12771;DHT22;6449;47.666;9.160;2023-06-22T12:23:17;26.20;99.90
12771;DHT22;6449;47.666;9.160;2023-06-22T12:28:11;26.20;99.90
12771;DHT22;6449;47.666;9.160;2023-06-22T12:33:08;26.20;99.90
12771;DHT22;6449;47.666;9.160;2023-06-22T12:38:01;26.20;99.90
12771;DHT22;6449;47.666;9.160;2023-06-22T12:42:56;26.20;99.90
12771;DHT22;6449;47.666;9.160;2023-06-22T12:47:50;26.30;99.90
12771;DHT22;6449;47.666;9.160;2023-06-22T12:52:43;26.40;99.90
12771;DHT22;6449;47.666;9.160;2023-06-22T12:57:40;26.60;99.90
12771;DHT22;6449;47.666;9.160;2023-06-22T13:02:34;26.90;99.90
12771;DHT22;6449;47.666;9.160;2023-06-22T13:07:29;27.20;99.90
12771;DHT22;6449;47.666;9.160;2023-06-22T13:12:22;27.40;99.90
12771;DHT22;6449;47.666;9.160;2023-06-22T13:17:16;27.70;99.90
12771;DHT22;6449;47.666;9.160;2023-06-22T13:22:26;27.50;99.90
12771;DHT22;6449;47.666;9.160;2023-06-22T13:27:21;27.40;99.90
12771;DHT22;6449;47.666;9.160;2023-06-22T13:32:15;27.30;99.90
12771;DHT22;6449;47.666;9.160;2023-06-22T13:37:08;27.30;99.90
12771;DHT22;6449;47.666;9.160;2023-06-22T13:42:04;27.20;99.90
12771;DHT22;6449;47.666;9.160;2023-06-22T13:46:58;27.10;99.90
12771;DHT22;6449;47.666;9.160;2023-06-22T13:51:51;27.10;99.90
12771;DHT22;6449;47.666;9.160;2023-06-22T13:56:44;27.10;99.90
12771;DHT22;6449;47.666;9.160;2023-06-22T14:01:39;27.10;99.90
12771;DHT22;6449;47.666;9.160;2023-06-22T14:06:33;27.10;99.90
12771;DHT22;6449;47.666;9.160;2023-06-22T14:11:26;27.20;99.90
12771;DHT22;6449;47.666;9.160;2023-06-22T14:16:20;27.50;99.90
12771;DHT22;6449;47.666;9.160;2023-06-22T14:21:14;27.70;99.90
12771;DHT22;6449;47.666;9.160;2023-06-22T14:26:08;27.80;99.90
12771;DHT22;6449;47.666;9.160;2023-06-22T14:31:01;27.70;99.90
12771;DHT22;6449;47.666;9.160;2023-06-22T14:35:55;27.50;99.90
12771;DHT22;6449;47.666;9.160;2023-06-22T14:40:50;27.40;99.90
12771;DHT22;6449;47.666;9.160;2023-06-22T14:46:03;27.30;99.90
12771;DHT22;6449;47.666;9.160;2023-06-22T14:50:57;27.20;99.90
12771;DHT22;6449;47.666;9.160;2023-06-22T14:55:53;27.20;99.90
12771;DHT22;6449;47.666;9.160;2023-06-22T15:00:47;27.20;99.90
12771;DHT22;6449;47.666;9.160;2023-06-22T15:05:41;27.20;99.90
12771;DHT22;6449;47.666;9.160;2023-06-22T15:10:36;27.20;99.90
12771;DHT22;6449;47.666;9.160;2023-06-22T15:15:31;27.30;99.90
12771;DHT22;6449;47.666;9.160;2023-06-22T15:20:25;27.50;99.90
12771;DHT22;6449;47.666;9.160;2023-06-22T15:25:19;27.60;99.90
12771;DHT22;6449;47.666;9.160;2023-06-22T15:30:12;27.40;99.90
12771;DHT22;6449;47.666;9.160;2023-06-22T15:35:07;27.20;99.90
12771;DHT22;6449;47.666;9.160;2023-06-22T15:40:01;27.10;99.90
12771;DHT22;6449;47.666;9.160;2023-06-22T15:44:54;27.10;99.90
12771;DHT22;6449;47.666;9.160;2023-06-22T15:49:48;27.10;99.90
12771;DHT22;6449;47.666;9.160;2023-06-22T15:54:44;27.10;99.90
12771;DHT22;6449;47.666;9.160;2023-06-22T15:59:37;27.20;99.90
12771;DHT22;6449;47.666;9.160;2023-06-22T16:04:31;27.10;99.90
12771;DHT22;6449;47.666;9.160;2023-06-22T16:09:24;27.10;99.90
12771;DHT22;6449;47.666;9.160;2023-06-22T16:14:19;26.80;99.90
12771;DHT22;6449;47.666;9.160;2023-06-22T16:19:13;26.70;99.90
12771;DHT22;6449;47.666;9.160;2023-06-22T16:24:07;26.40;99.90
12771;DHT22;6449;47.666;9.160;2023-06-22T16:29:00;26.40;99.90
12771;DHT22;6449;47.666;9.160;2023-06-22T16:33:55;26.30;99.90
12771;DHT22;6449;47.666;9.160;2023-06-22T16:38:48;26.20;99.90
12771;DHT22;6449;47.666;9.160;2023-06-22T16:43:42;26.20;99.90
12771;DHT22;6449;47.666;9.160;2023-06-22T16:48:36;26.10;99.90
12771;DHT22;6449;47.666;9.160;2023-06-22T16:53:31;26.00;99.90
12771;DHT22;6449;47.666;9.160;2023-06-22T16:58:27;25.90;99.90
12771;DHT22;6449;47.666;9.160;2023-06-22T17:03:25;25.80;99.90
12771;DHT22;6449;47.666;9.160;2023-06-22T17:08:21;25.60;99.90
12771;DHT22;6449;47.666;9.160;2023-06-22T17:13:16;25.30;99.90
12771;DHT22;6449;47.666;9.160;2023-06-22T17:18:12;24.70;99.90
12771;DHT22;6449;47.666;9.160;2023-06-22T17:23:05;24.30;99.90
12771;DHT22;6449;47.666;9.160;2023-06-22T17:27:59;23.70;99.90
12771;DHT22;6449;47.666;9.160;2023-06-22T17:32:55;23.30;99.90
12771;DHT22;6449;47.666;9.160;2023-06-22T17:37:51;23.10;99.90
12771;DHT22;6449;47.666;9.160;2023-06-22T17:42:45;23.10;99.90
12771;DHT22;6449;47.666;9.160;2023-06-22T17:47:39;23.30;99.90
12771;DHT22;6449;47.666;9.160;2023-06-22T17:52:34;22.80;99.90
12771;DHT22;6449;47.666;9.160;2023-06-22T17:57:27;22.90;99.90
12771;DHT22;6449;47.666;9.160;2023-06-22T18:02:28;23.00;99.90
12771;DHT22;6449;47.666;9.160;2023-06-22T18:07:22;22.80;99.90
12771;DHT22;6449;47.666;9.160;2023-06-22T18:12:18;22.80;99.90
12771;DHT22;6449;47.666;9.160;2023-06-22T18:17:12;22.80;99.90
12771;DHT22;6449;47.666;9.160;2023-06-22T18:22:08;22.80;99.90
12771;DHT22;6449;47.666;9.160;2023-06-22T18:27:03;22.60;99.90
12771;DHT22;6449;47.666;9.160;2023-06-22T18:31:59;22.60;99.90
12771;DHT22;6449;47.666;9.160;2023-06-22T18:36:57;22.70;99.90
12771;DHT22;6449;47.666;9.160;2023-06-22T18:41:54;22.60;99.90
12771;DHT22;6449;47.666;9.160;2023-06-22T18:46:50;22.50;99.90
12771;DHT22;6449;47.666;9.160;2023-06-22T18:51:53;22.40;99.90
12771;DHT22;6449;47.666;9.160;2023-06-22T18:56:54;22.40;99.90
12771;DHT22;6449;47.666;9.160;2023-06-22T19:01:55;22.30;99.90
12771;DHT22;6449;47.666;9.160;2023-06-22T19:06:57;22.20;99.90
12771;DHT22;6449;47.666;9.160;2023-06-22T19:12:22;22.00;99.90
12771;DHT22;6449;47.666;9.160;2023-06-22T19:17:18;21.80;99.90
12771;DHT22;6449;47.666;9.160;2023-06-22T19:22:13;21.80;99.90
12771;DHT22;6449;47.666;9.160;2023-06-22T19:27:08;21.80;99.90
12771;DHT22;6449;47.666;9.160;2023-06-22T19:32:03;21.60;99.90
12771;DHT22;6449;47.666;9.160;2023-06-22T19:36:59;21.30;99.90
12771;DHT22;6449;47.666;9.160;2023-06-22T19:41:54;21.20;99.90
12771;DHT22;6449;47.666;9.160;2023-06-22T19:46:47;21.30;99.90
12771;DHT22;6449;47.666;9.160;2023-06-22T19:51:42;21.40;99.90
12771;DHT22;6449;47.666;9.160;2023-06-22T19:56:35;21.10;99.90
12771;DHT22;6449;47.666;9.160;2023-06-22T20:01:30;21.10;99.90
12771;DHT22;6449;47.666;9.160;2023-06-22T20:06:23;20.70;99.90
12771;DHT22;6449;47.666;9.160;2023-06-22T20:11:24;21.00;99.90
12771;DHT22;6449;47.666;9.160;2023-06-22T20:16:20;21.20;99.90
12771;DHT22;6449;47.666;9.160;2023-06-22T20:21:15;21.20;99.90
12771;DHT22;6449;47.666;9.160;2023-06-22T20:26:10;21.20;99.90
12771;DHT22;6449;47.666;9.160;2023-06-22T20:31:09;21.20;99.90
12771;DHT22;6449;47.666;9.160;2023-06-22T20:36:05;21.00;99.90
12771;DHT22;6449;47.666;9.160;2023-06-22T20:41:02;20.90;99.90
12771;DHT22;6449;47.666;9.160;2023-06-22T20:45:58;20.90;99.90
12771;DHT22;6449;47.666;9.160;2023-06-22T20:50:51;20.60;99.90
12771;DHT22;6449;47.666;9.160;2023-06-22T20:55:49;20.70;99.90
12771;DHT22;6449;47.666;9.160;2023-06-22T21:00:44;20.70;99.90
12771;DHT22;6449;47.666;9.160;2023-06-22T21:05:39;20.50;99.90
12771;DHT22;6449;47.666;9.160;2023-06-22T21:10:33;20.50;99.90
12771;DHT22;6449;47.666;9.160;2023-06-22T21:15:26;20.30;99.90
12771;DHT22;6449;47.666;9.160;2023-06-22T21:20:21;20.20;99.90
12771;DHT22;6449;47.666;9.160;2023-06-22T21:25:15;20.20;99.90
12771;DHT22;6449;47.666;9.160;2023-06-22T21:30:09;20.20;99.90
12771;DHT22;6449;47.666;9.160;2023-06-22T21:35:04;20.10;99.90
12771;DHT22;6449;47.666;9.160;2023-06-22T21:40:03;19.70;99.90
12771;DHT22;6449;47.666;9.160;2023-06-22T21:44:57;19.60;99.90
12771;DHT22;6449;47.666;9.160;2023-06-22T21:49:50;19.70;99.90
12771;DHT22;6449;47.666;9.160;2023-06-22T21:54:44;19.80;99.90
12771;DHT22;6449;47.666;9.160;2023-06-22T21:59:38;19.70;99.90
12771;DHT22;6449;47.666;9.160;2023-06-22T22:04:32;19.60;99.90
12771;DHT22;6449;47.666;9.160;2023-06-22T22:09:25;19.50;99.90
12771;DHT22;6449;47.666;9.160;2023-06-22T22:14:18;19.40;99.90
12771;DHT22;6449;47.666;9.160;2023-06-22T22:19:13;19.40;99.90
12771;DHT22;6449;47.666;9.160;2023-06-22T22:24:07;19.40;99.90
12771;DHT22;6449;47.666;9.160;2023-06-22T22:29:00;19.40;99.90
12771;DHT22;6449;47.666;9.160;2023-06-22T22:33:53;19.40;99.90
12771;DHT22;6449;47.666;9.160;2023-06-22T22:38:48;19.40;99.90
12771;DHT22;6449;47.666;9.160;2023-06-22T22:43:42;19.30;99.90
12771;DHT22;6449;47.666;9.160;2023-06-22T22:48:35;19.20;99.90
12771;DHT22;6449;47.666;9.160;2023-06-22T22:53:28;19.30;99.90
12771;DHT22;6449;47.666;9.160;2023-06-22T22:58:24;19.50;99.90
12771;DHT22;6449;47.666;9.160;2023-06-22T23:03:17;19.50;99.90
12771;DHT22;6449;47.666;9.160;2023-06-22T23:08:11;19.50;99.90
12771;DHT22;6449;47.666;9.160;2023-06-22T23:13:05;19.50;99.90
12771;DHT22;6449;47.666;9.160;2023-06-22T23:17:59;19.40;99.90
12771;DHT22;6449;47.666;9.160;2023-06-22T23:22:55;19.50;99.90
12771;DHT22;6449;47.666;9.160;2023-06-22T23:27:50;19.30;99.90
12771;DHT22;6449;47.666;9.160;2023-06-22T23:32:44;19.40;99.90
12771;DHT22;6449;47.666;9.160;2023-06-22T23:37:41;19.40;99.90
12771;DHT22;6449;47.666;9.160;2023-06-22T23:42:37;19.50;99.90
12771;DHT22;6449;47.666;9.160;2023-06-22T23:47:30;19.50;99.90
12771;DHT22;6449;47.666;9.160;2023-06-22T23:52:24;19.50;99.90
12771;DHT22;6449;47.666;9.160;2023-06-22T23:57:19;19.40;99.90
